createdAt,value
2017-09-29T00:00:06.144Z,1020.82
2017-09-29T00:00:46.767Z,1020.82
2017-09-29T00:01:27.361Z,1020.79
2017-09-29T00:02:08.290Z,1020.75
2017-09-29T00:02:48.949Z,1020.74
2017-09-29T00:03:29.769Z,1020.73
2017-09-29T00:04:10.480Z,1020.71
2017-09-29T00:04:51.163Z,1020.71
2017-09-29T00:05:31.804Z,1020.71
2017-09-29T00:06:12.528Z,1020.71
2017-09-29T00:06:53.123Z,1020.69
2017-09-29T00:07:33.869Z,1020.69
2017-09-29T00:08:14.455Z,1020.67
2017-09-29T00:08:55.410Z,1020.65
2017-09-29T00:09:36.080Z,1020.66
2017-09-29T00:10:16.919Z,1020.63
2017-09-29T00:10:57.470Z,1020.65
2017-09-29T00:11:38.154Z,1020.61
2017-09-29T00:12:18.869Z,1020.64
2017-09-29T00:13:00.293Z,1020.61
2017-09-29T00:13:40.897Z,1020.65
2017-09-29T00:14:21.581Z,1020.57
2017-09-29T00:15:02.313Z,1020.58
2017-09-29T00:15:43.001Z,1020.56
2017-09-29T00:16:23.597Z,1020.59
2017-09-29T00:17:04.807Z,1020.58
2017-09-29T00:17:45.286Z,1020.56
2017-09-29T00:18:25.942Z,1020.59
2017-09-29T00:19:06.722Z,1020.59
2017-09-29T00:19:47.478Z,1020.59
2017-09-29T00:20:28.186Z,1020.59
2017-09-29T00:21:08.791Z,1020.55
2017-09-29T00:21:49.392Z,1020.61
2017-09-29T00:22:30.540Z,1020.59
2017-09-29T00:23:11.285Z,1020.57
2017-09-29T00:23:52.160Z,1020.55
2017-09-29T00:24:32.771Z,1020.52
2017-09-29T00:25:13.465Z,1020.6
2017-09-29T00:25:54.112Z,1020.54
2017-09-29T00:26:34.762Z,1020.54
2017-09-29T00:27:15.334Z,1020.54
2017-09-29T00:27:55.915Z,1020.56
2017-09-29T00:28:36.518Z,1020.56
2017-09-29T00:29:17.102Z,1020.54
2017-09-29T00:29:57.717Z,1020.55
2017-09-29T00:30:38.292Z,1020.55
2017-09-29T00:31:18.856Z,1020.6
2017-09-29T00:31:59.429Z,1020.59
2017-09-29T00:32:40.009Z,1020.56
2017-09-29T00:33:20.606Z,1020.56
2017-09-29T00:34:01.197Z,1020.59
2017-09-29T00:34:41.905Z,1020.59
2017-09-29T00:35:22.478Z,1020.61
2017-09-29T00:36:03.114Z,1020.62
2017-09-29T00:36:43.763Z,1020.59
2017-09-29T00:37:24.636Z,1020.6
2017-09-29T00:38:05.459Z,1020.64
2017-09-29T00:38:46.077Z,1020.63
2017-09-29T00:39:26.771Z,1020.66
2017-09-29T00:40:07.447Z,1020.63
2017-09-29T00:40:48.114Z,1020.61
2017-09-29T00:41:28.813Z,1020.59
2017-09-29T00:42:09.417Z,1020.62
2017-09-29T00:42:50.125Z,1020.63
2017-09-29T00:43:30.730Z,1020.61
2017-09-29T00:44:11.636Z,1020.6
2017-09-29T00:44:52.229Z,1020.55
2017-09-29T00:45:32.961Z,1020.61
2017-09-29T00:46:14.020Z,1020.61
2017-09-29T00:46:54.849Z,1020.58
2017-09-29T00:47:35.511Z,1020.57
2017-09-29T00:48:16.221Z,1020.61
2017-09-29T00:48:56.940Z,1020.61
2017-09-29T00:49:37.829Z,1020.59
2017-09-29T00:50:18.581Z,1020.59
2017-09-29T00:50:59.215Z,1020.6
2017-09-29T00:51:39.839Z,1020.56
2017-09-29T00:52:20.429Z,1020.56
2017-09-29T00:53:01.367Z,1020.59
2017-09-29T00:53:41.846Z,1020.55
2017-09-29T00:54:22.612Z,1020.54
2017-09-29T00:55:03.302Z,1020.55
2017-09-29T00:55:43.931Z,1020.53
2017-09-29T00:56:25.145Z,1020.52
2017-09-29T00:57:06.106Z,1020.53
2017-09-29T00:57:46.721Z,1020.59
2017-09-29T00:58:27.575Z,1020.54
2017-09-29T00:59:08.333Z,1020.54
2017-09-29T00:59:49.137Z,1020.56
2017-09-29T01:00:30.018Z,1020.53
2017-09-29T01:01:11.036Z,1020.53
2017-09-29T01:01:52.469Z,1020.56
2017-09-29T01:02:33.173Z,1020.55
2017-09-29T01:03:14.207Z,1020.56
2017-09-29T01:03:54.992Z,1020.52
2017-09-29T01:04:35.636Z,1020.56
2017-09-29T01:05:16.422Z,1020.52
2017-09-29T01:05:57.253Z,1020.54
2017-09-29T01:06:38.013Z,1020.53
2017-09-29T01:07:18.609Z,1020.62
2017-09-29T01:07:59.541Z,1020.56
2017-09-29T01:08:40.196Z,1020.56
2017-09-29T01:09:20.977Z,1020.57
2017-09-29T01:10:01.762Z,1020.55
2017-09-29T01:10:42.697Z,1020.52
2017-09-29T01:11:23.471Z,1020.51
2017-09-29T01:12:04.229Z,1020.52
2017-09-29T01:12:44.914Z,1020.47
2017-09-29T01:13:25.695Z,1020.49
2017-09-29T01:14:06.377Z,1020.48
2017-09-29T01:14:46.992Z,1020.5
2017-09-29T01:15:27.636Z,1020.48
2017-09-29T01:16:08.277Z,1020.5
2017-09-29T01:16:48.854Z,1020.48
2017-09-29T01:17:29.480Z,1020.48
2017-09-29T01:18:10.054Z,1020.46
2017-09-29T01:18:50.649Z,1020.46
2017-09-29T01:19:31.223Z,1020.47
2017-09-29T01:20:11.800Z,1020.49
2017-09-29T01:20:52.392Z,1020.44
2017-09-29T01:21:32.975Z,1020.46
2017-09-29T01:22:13.567Z,1020.46
2017-09-29T01:22:54.174Z,1020.45
2017-09-29T01:23:34.776Z,1020.51
2017-09-29T01:24:15.373Z,1020.46
2017-09-29T01:24:55.945Z,1020.48
2017-09-29T01:25:36.518Z,1020.47
2017-09-29T01:26:17.143Z,1020.49
2017-09-29T01:26:57.738Z,1020.5
2017-09-29T01:27:38.324Z,1020.54
2017-09-29T01:28:18.927Z,1020.48
2017-09-29T01:28:59.547Z,1020.45
2017-09-29T01:29:40.147Z,1020.48
2017-09-29T01:30:20.745Z,1020.47
2017-09-29T01:31:01.359Z,1020.48
2017-09-29T01:31:41.951Z,1020.47
2017-09-29T01:32:22.540Z,1020.47
2017-09-29T01:33:03.158Z,1020.5
2017-09-29T01:33:43.750Z,1020.5
2017-09-29T01:34:24.367Z,1020.48
2017-09-29T01:35:04.961Z,1020.45
2017-09-29T01:35:45.605Z,1020.46
2017-09-29T01:36:26.188Z,1020.46
2017-09-29T01:37:06.777Z,1020.44
2017-09-29T01:37:47.349Z,1020.43
2017-09-29T01:38:27.955Z,1020.46
2017-09-29T01:39:08.517Z,1020.44
2017-09-29T01:39:49.116Z,1020.45
2017-09-29T01:40:29.689Z,1020.44
2017-09-29T01:41:10.275Z,1020.45
2017-09-29T01:41:50.851Z,1020.45
2017-09-29T01:42:31.421Z,1020.45
2017-09-29T01:43:12.014Z,1020.48
2017-09-29T01:43:52.591Z,1020.44
2017-09-29T01:44:33.187Z,1020.45
2017-09-29T01:45:13.773Z,1020.4
2017-09-29T01:45:54.340Z,1020.45
2017-09-29T01:46:34.937Z,1020.42
2017-09-29T01:47:15.639Z,1020.45
2017-09-29T01:47:56.298Z,1020.41
2017-09-29T01:48:36.877Z,1020.43
2017-09-29T01:49:17.496Z,1020.41
2017-09-29T01:49:58.097Z,1020.41
2017-09-29T01:50:38.669Z,1020.38
2017-09-29T01:51:19.243Z,1020.39
2017-09-29T01:51:59.843Z,1020.41
2017-09-29T01:52:40.432Z,1020.42
2017-09-29T01:53:21.002Z,1020.4
2017-09-29T01:54:01.661Z,1020.37
2017-09-29T01:54:42.256Z,1020.41
2017-09-29T01:55:22.866Z,1020.45
2017-09-29T01:56:03.441Z,1020.4
2017-09-29T01:56:44.010Z,1020.43
2017-09-29T01:57:24.608Z,1020.38
2017-09-29T01:58:05.214Z,1020.4
2017-09-29T01:58:45.794Z,1020.42
2017-09-29T01:59:26.357Z,1020.37
2017-09-29T02:00:06.936Z,1020.37
2017-09-29T02:00:47.530Z,1020.36
2017-09-29T02:01:28.157Z,1020.34
2017-09-29T02:02:08.720Z,1020.34
2017-09-29T02:02:49.301Z,1020.32
2017-09-29T02:03:29.897Z,1020.34
2017-09-29T02:04:10.490Z,1020.28
2017-09-29T02:04:51.091Z,1020.32
2017-09-29T02:05:31.682Z,1020.32
2017-09-29T02:06:12.238Z,1020.31
2017-09-29T02:06:52.853Z,1020.33
2017-09-29T02:07:33.424Z,1020.29
2017-09-29T02:08:13.991Z,1020.33
2017-09-29T02:08:54.589Z,1020.28
2017-09-29T02:09:35.183Z,1020.29
2017-09-29T02:10:15.793Z,1020.32
2017-09-29T02:10:56.392Z,1020.32
2017-09-29T02:11:37.004Z,1020.3
2017-09-29T02:12:17.585Z,1020.28
2017-09-29T02:12:58.215Z,1020.27
2017-09-29T02:13:38.828Z,1020.27
2017-09-29T02:14:19.418Z,1020.28
2017-09-29T02:15:00.028Z,1020.29
2017-09-29T02:15:40.611Z,1020.3
2017-09-29T02:16:21.166Z,1020.33
2017-09-29T02:17:01.771Z,1020.34
2017-09-29T02:17:42.370Z,1020.29
2017-09-29T02:18:23.296Z,1020.31
2017-09-29T02:19:04.263Z,1020.3
2017-09-29T02:19:45.218Z,1020.29
2017-09-29T02:20:26.145Z,1020.3
2017-09-29T02:21:06.976Z,1020.29
2017-09-29T02:21:47.726Z,1020.3
2017-09-29T02:22:28.706Z,1020.29
2017-09-29T02:23:09.631Z,1020.33
2017-09-29T02:23:50.589Z,1020.29
2017-09-29T02:24:31.384Z,1020.32
2017-09-29T02:25:11.946Z,1020.27
2017-09-29T02:25:52.511Z,1020.31
2017-09-29T02:26:33.073Z,1020.27
2017-09-29T02:27:13.657Z,1020.3
2017-09-29T02:27:54.210Z,1020.27
2017-09-29T02:28:34.792Z,1020.29
2017-09-29T02:29:15.360Z,1020.24
2017-09-29T02:29:55.942Z,1020.27
2017-09-29T02:30:36.524Z,1020.22
2017-09-29T02:31:17.121Z,1020.28
2017-09-29T02:31:57.685Z,1020.24
2017-09-29T02:32:38.279Z,1020.22
2017-09-29T02:33:18.866Z,1020.24
2017-09-29T02:33:59.522Z,1020.25
2017-09-29T02:34:40.059Z,1020.21
2017-09-29T02:35:20.683Z,1020.22
2017-09-29T02:36:01.273Z,1020.22
2017-09-29T02:36:41.897Z,1020.23
2017-09-29T02:37:22.547Z,1020.22
2017-09-29T02:38:03.138Z,1020.24
2017-09-29T02:38:43.718Z,1020.24
2017-09-29T02:39:24.306Z,1020.25
2017-09-29T02:40:04.903Z,1020.24
2017-09-29T02:40:45.528Z,1020.23
2017-09-29T02:41:26.116Z,1020.24
2017-09-29T02:42:06.692Z,1020.23
2017-09-29T02:42:47.293Z,1020.18
2017-09-29T02:43:27.914Z,1020.2
2017-09-29T02:44:08.503Z,1020.24
2017-09-29T02:44:49.098Z,1020.2
2017-09-29T02:45:29.704Z,1020.22
2017-09-29T02:46:10.278Z,1020.25
2017-09-29T02:46:50.871Z,1020.23
2017-09-29T02:47:31.465Z,1020.18
2017-09-29T02:48:12.054Z,1020.21
2017-09-29T02:48:52.647Z,1020.22
2017-09-29T02:49:33.220Z,1020.2
2017-09-29T02:50:13.788Z,1020.21
2017-09-29T02:50:54.374Z,1020.2
2017-09-29T02:51:34.975Z,1020.2
2017-09-29T02:52:15.551Z,1020.18
2017-09-29T02:52:56.234Z,1020.19
2017-09-29T02:53:36.873Z,1020.21
2017-09-29T02:54:17.500Z,1020.2
2017-09-29T02:54:58.112Z,1020.19
2017-09-29T02:55:38.699Z,1020.21
2017-09-29T02:56:19.258Z,1020.17
2017-09-29T02:56:59.878Z,1020.21
2017-09-29T02:57:40.468Z,1020.18
2017-09-29T02:58:21.044Z,1020.19
2017-09-29T02:59:01.658Z,1020.2
2017-09-29T02:59:42.250Z,1020.19
2017-09-29T03:00:22.861Z,1020.22
2017-09-29T03:01:03.426Z,1020.18
2017-09-29T03:01:44.022Z,1020.18
2017-09-29T03:02:24.637Z,1020.15
2017-09-29T03:03:05.203Z,1020.22
2017-09-29T03:03:45.795Z,1020.16
2017-09-29T03:04:26.448Z,1020.16
2017-09-29T03:05:07.084Z,1020.15
2017-09-29T03:05:47.701Z,1020.14
2017-09-29T03:06:28.329Z,1020.14
2017-09-29T03:07:08.930Z,1020.19
2017-09-29T03:07:49.506Z,1020.16
2017-09-29T03:08:30.133Z,1020.17
2017-09-29T03:09:10.728Z,1020.18
2017-09-29T03:09:51.336Z,1020.15
2017-09-29T03:10:31.919Z,1020.11
2017-09-29T03:11:12.505Z,1020.11
2017-09-29T03:11:53.120Z,1020.11
2017-09-29T03:12:33.735Z,1020.13
2017-09-29T03:13:14.333Z,1020.12
2017-09-29T03:13:54.938Z,1020.08
2017-09-29T03:14:35.529Z,1020.11
2017-09-29T03:15:16.090Z,1020.11
2017-09-29T03:15:56.672Z,1020.1
2017-09-29T03:16:37.282Z,1020.1
2017-09-29T03:17:17.895Z,1020.08
2017-09-29T03:17:58.536Z,1020.09
2017-09-29T03:18:39.146Z,1020.07
2017-09-29T03:19:19.758Z,1020.04
2017-09-29T03:20:00.365Z,1020.08
2017-09-29T03:20:40.992Z,1020.04
2017-09-29T03:21:21.649Z,1020.09
2017-09-29T03:22:02.171Z,1020.07
2017-09-29T03:22:42.756Z,1020.06
2017-09-29T03:23:23.351Z,1020.08
2017-09-29T03:24:03.910Z,1020.09
2017-09-29T03:24:44.482Z,1020.08
2017-09-29T03:25:25.060Z,1020.09
2017-09-29T03:26:05.644Z,1020.09
2017-09-29T03:26:46.274Z,1020.04
2017-09-29T03:27:26.847Z,1020.09
2017-09-29T03:28:07.434Z,1020.04
2017-09-29T03:28:48.004Z,1020.07
2017-09-29T03:29:28.580Z,1020.06
2017-09-29T03:30:09.182Z,1020.06
2017-09-29T03:30:49.834Z,1020.02
2017-09-29T03:31:30.447Z,1020.04
2017-09-29T03:32:11.046Z,1020
2017-09-29T03:32:51.660Z,1020.02
2017-09-29T03:33:32.241Z,1019.99
2017-09-29T03:34:12.900Z,1020
2017-09-29T03:34:53.522Z,1019.97
2017-09-29T03:35:34.103Z,1019.99
2017-09-29T03:36:14.757Z,1019.97
2017-09-29T03:36:55.369Z,1019.96
2017-09-29T03:37:35.956Z,1019.96
2017-09-29T03:38:16.581Z,1019.97
2017-09-29T03:38:57.161Z,1019.96
2017-09-29T03:39:37.774Z,1019.99
2017-09-29T03:40:18.378Z,1019.99
2017-09-29T03:40:58.947Z,1019.98
2017-09-29T03:41:39.564Z,1019.99
2017-09-29T03:42:20.175Z,1019.95
2017-09-29T03:43:00.745Z,1019.99
2017-09-29T03:43:41.320Z,1019.96
2017-09-29T03:44:21.903Z,1019.99
2017-09-29T03:45:02.479Z,1019.98
2017-09-29T03:45:43.101Z,1019.94
2017-09-29T03:46:23.658Z,1019.98
2017-09-29T03:47:04.269Z,1019.97
2017-09-29T03:47:44.858Z,1019.98
2017-09-29T03:48:25.451Z,1019.95
2017-09-29T03:49:06.044Z,1019.97
2017-09-29T03:49:46.646Z,1019.96
2017-09-29T03:50:27.227Z,1019.97
2017-09-29T03:51:07.798Z,1019.95
2017-09-29T03:51:48.401Z,1019.96
2017-09-29T03:52:28.987Z,1019.92
2017-09-29T03:53:09.579Z,1019.97
2017-09-29T03:53:50.170Z,1019.94
2017-09-29T03:54:30.769Z,1019.96
2017-09-29T03:55:11.357Z,1019.94
2017-09-29T03:55:51.963Z,1019.96
2017-09-29T03:56:32.583Z,1019.96
2017-09-29T03:57:13.174Z,1019.93
2017-09-29T03:57:53.780Z,1019.98
2017-09-29T03:58:34.369Z,1019.95
2017-09-29T03:59:14.987Z,1019.98
2017-09-29T03:59:55.592Z,1019.96
2017-09-29T04:00:36.238Z,1019.93
2017-09-29T04:01:16.815Z,1019.97
2017-09-29T04:01:57.423Z,1020.01
2017-09-29T04:02:38.033Z,1019.99
2017-09-29T04:03:18.598Z,1020.02
2017-09-29T04:03:59.179Z,1020
2017-09-29T04:04:39.778Z,1019.98
2017-09-29T04:05:20.342Z,1019.97
2017-09-29T04:06:00.937Z,1020.01
2017-09-29T04:06:41.530Z,1019.99
2017-09-29T04:07:22.129Z,1020.06
2017-09-29T04:08:02.720Z,1020
2017-09-29T04:08:43.300Z,1020.01
2017-09-29T04:09:23.885Z,1020
2017-09-29T04:10:04.514Z,1019.97
2017-09-29T04:10:45.103Z,1019.98
2017-09-29T04:11:25.645Z,1020
2017-09-29T04:12:06.243Z,1020.02
2017-09-29T04:12:46.836Z,1020.01
2017-09-29T04:13:27.421Z,1020.02
2017-09-29T04:14:07.985Z,1020.01
2017-09-29T04:14:48.588Z,1019.98
2017-09-29T04:15:29.215Z,1020.06
2017-09-29T04:16:09.788Z,1020.06
2017-09-29T04:16:50.364Z,1020.02
2017-09-29T04:17:30.935Z,1020.04
2017-09-29T04:18:11.511Z,1020.06
2017-09-29T04:18:52.102Z,1020.05
2017-09-29T04:19:32.762Z,1020.1
2017-09-29T04:20:13.333Z,1020.06
2017-09-29T04:20:53.899Z,1020.09
2017-09-29T04:21:34.505Z,1020.07
2017-09-29T04:22:15.113Z,1020.09
2017-09-29T04:22:55.725Z,1020.08
2017-09-29T04:23:36.319Z,1020.11
2017-09-29T04:24:16.873Z,1020.08
2017-09-29T04:24:57.443Z,1020.13
2017-09-29T04:25:38.033Z,1020.1
2017-09-29T04:26:18.691Z,1020.11
2017-09-29T04:26:59.265Z,1020.09
2017-09-29T04:27:39.892Z,1020.08
2017-09-29T04:28:20.497Z,1020.08
2017-09-29T04:29:01.094Z,1020.1
2017-09-29T04:29:41.707Z,1020.1
2017-09-29T04:30:22.315Z,1020.09
2017-09-29T04:31:02.885Z,1020.13
2017-09-29T04:31:43.493Z,1020.13
2017-09-29T04:32:24.092Z,1020.06
2017-09-29T04:33:04.701Z,1020.12
2017-09-29T04:33:45.328Z,1020.13
2017-09-29T04:34:25.937Z,1020.11
2017-09-29T04:35:06.509Z,1020.09
2017-09-29T04:35:47.109Z,1020.09
2017-09-29T04:36:27.699Z,1020.1
2017-09-29T04:37:08.287Z,1020.12
2017-09-29T04:37:48.861Z,1020.12
2017-09-29T04:38:29.481Z,1020.1
2017-09-29T04:39:10.091Z,1020.11
2017-09-29T04:39:50.659Z,1020.14
2017-09-29T04:40:31.311Z,1020.13
2017-09-29T04:41:11.931Z,1020.14
2017-09-29T04:41:52.516Z,1020.12
2017-09-29T04:42:33.083Z,1020.11
2017-09-29T04:43:13.669Z,1020.13
2017-09-29T04:43:54.236Z,1020.15
2017-09-29T04:44:34.823Z,1020.13
2017-09-29T04:45:15.394Z,1020.16
2017-09-29T04:45:56.123Z,1020.16
2017-09-29T04:46:37.818Z,1020.17
2017-09-29T04:47:18.416Z,1020.19
2017-09-29T04:47:58.992Z,1020.19
2017-09-29T04:48:39.580Z,1020.18
2017-09-29T04:49:20.229Z,1020.2
2017-09-29T04:50:00.847Z,1020.19
2017-09-29T04:50:41.474Z,1020.19
2017-09-29T04:51:22.102Z,1020.17
2017-09-29T04:52:02.697Z,1020.23
2017-09-29T04:52:43.277Z,1020.22
2017-09-29T04:53:23.855Z,1020.23
2017-09-29T04:54:04.440Z,1020.28
2017-09-29T04:54:46.556Z,1020.25
2017-09-29T04:55:27.016Z,1020.22
2017-09-29T04:56:07.637Z,1020.22
2017-09-29T04:56:48.223Z,1020.23
2017-09-29T04:57:28.817Z,1020.2
2017-09-29T04:58:09.395Z,1020.23
2017-09-29T04:58:50.002Z,1020.19
2017-09-29T04:59:30.615Z,1020.16
2017-09-29T05:00:11.196Z,1020.16
2017-09-29T05:00:51.797Z,1020.16
2017-09-29T05:01:32.388Z,1020.13
2017-09-29T05:02:12.967Z,1020.17
2017-09-29T05:02:53.588Z,1020.18
2017-09-29T05:03:34.174Z,1020.2
2017-09-29T05:04:14.772Z,1020.15
2017-09-29T05:04:55.374Z,1020.16
2017-09-29T05:05:35.968Z,1020.19
2017-09-29T05:06:16.557Z,1020.16
2017-09-29T05:06:57.209Z,1020.13
2017-09-29T05:07:37.751Z,1020.12
2017-09-29T05:08:18.337Z,1020.15
2017-09-29T05:08:58.936Z,1020.07
2017-09-29T05:09:39.565Z,1020.07
2017-09-29T05:10:20.159Z,1020.09
2017-09-29T05:11:00.740Z,1020.09
2017-09-29T05:11:41.324Z,1020.03
2017-09-29T05:12:21.911Z,1020.07
2017-09-29T05:13:02.513Z,1020.04
2017-09-29T05:13:43.148Z,1020.04
2017-09-29T05:14:23.729Z,1020.07
2017-09-29T05:15:04.329Z,1020.03
2017-09-29T05:15:44.914Z,1020.03
2017-09-29T05:16:25.497Z,1020.06
2017-09-29T05:17:06.105Z,1020.03
2017-09-29T05:17:46.686Z,1020.09
2017-09-29T05:18:27.281Z,1020.03
2017-09-29T05:19:07.887Z,1020.08
2017-09-29T05:19:48.517Z,1020.09
2017-09-29T05:20:29.181Z,1020.16
2017-09-29T05:21:09.782Z,1020.12
2017-09-29T05:21:50.408Z,1020.15
2017-09-29T05:22:31.012Z,1020.18
2017-09-29T05:23:11.597Z,1020.19
2017-09-29T05:23:52.296Z,1020.19
2017-09-29T05:24:32.833Z,1020.2
2017-09-29T05:25:13.408Z,1020.22
2017-09-29T05:25:54.034Z,1020.17
2017-09-29T05:26:34.633Z,1020.27
2017-09-29T05:27:15.222Z,1020.21
2017-09-29T05:27:55.830Z,1020.28
2017-09-29T05:28:36.505Z,1020.28
2017-09-29T05:29:17.130Z,1020.28
2017-09-29T05:29:57.796Z,1020.28
2017-09-29T05:30:38.398Z,1020.25
2017-09-29T05:31:19.014Z,1020.31
2017-09-29T05:31:59.676Z,1020.29
2017-09-29T05:32:40.263Z,1020.3
2017-09-29T05:33:20.851Z,1020.24
2017-09-29T05:34:01.458Z,1020.22
2017-09-29T05:34:42.629Z,1020.22
2017-09-29T05:35:23.242Z,1020.22
2017-09-29T05:36:03.857Z,1020.25
2017-09-29T05:36:44.482Z,1020.22
2017-09-29T05:37:25.089Z,1020.22
2017-09-29T05:38:05.880Z,1020.2
2017-09-29T05:38:46.493Z,1020.19
2017-09-29T05:39:27.129Z,1020.21
2017-09-29T05:40:07.752Z,1020.2
2017-09-29T05:40:48.366Z,1020.17
2017-09-29T05:41:29.164Z,1020.22
2017-09-29T05:42:09.761Z,1020.21
2017-09-29T05:42:50.381Z,1020.22
2017-09-29T05:43:31.000Z,1020.24
2017-09-29T05:44:11.635Z,1020.2
2017-09-29T05:44:52.238Z,1020.21
2017-09-29T05:45:32.924Z,1020.25
2017-09-29T05:46:13.531Z,1020.25
2017-09-29T05:46:54.098Z,1020.23
2017-09-29T05:47:34.722Z,1020.26
2017-09-29T05:48:15.376Z,1020.27
2017-09-29T05:48:55.947Z,1020.27
2017-09-29T05:49:36.539Z,1020.3
2017-09-29T05:50:17.125Z,1020.32
2017-09-29T05:50:57.701Z,1020.3
2017-09-29T05:51:38.311Z,1020.32
2017-09-29T05:52:18.894Z,1020.3
2017-09-29T05:52:59.494Z,1020.32
2017-09-29T05:53:40.099Z,1020.32
2017-09-29T05:54:20.678Z,1020.29
2017-09-29T05:55:01.264Z,1020.29
2017-09-29T05:55:41.877Z,1020.31
2017-09-29T05:56:22.504Z,1020.29
2017-09-29T05:57:03.133Z,1020.28
2017-09-29T05:57:43.731Z,1020.3
2017-09-29T05:58:24.314Z,1020.24
2017-09-29T05:59:04.936Z,1020.27
2017-09-29T05:59:45.524Z,1020.3
2017-09-29T06:00:26.122Z,1020.26
2017-09-29T06:01:06.752Z,1020.23
2017-09-29T06:01:47.349Z,1020.19
2017-09-29T06:02:27.959Z,1020.21
2017-09-29T06:03:08.536Z,1020.17
2017-09-29T06:03:49.148Z,1020.19
2017-09-29T06:04:29.800Z,1020.12
2017-09-29T06:05:10.391Z,1020.13
2017-09-29T06:05:51.012Z,1020.14
2017-09-29T06:06:31.602Z,1020.15
2017-09-29T06:07:12.187Z,1020.13
2017-09-29T06:07:52.773Z,1020.14
2017-09-29T06:08:33.365Z,1020.13
2017-09-29T06:09:13.977Z,1020.15
2017-09-29T06:09:54.568Z,1020.14
2017-09-29T06:10:35.202Z,1020.19
2017-09-29T06:11:15.821Z,1020.1
2017-09-29T06:11:56.380Z,1020.16
2017-09-29T06:12:36.954Z,1020.18
2017-09-29T06:13:17.538Z,1020.19
2017-09-29T06:13:58.116Z,1020.15
2017-09-29T06:14:38.673Z,1020.17
2017-09-29T06:15:19.248Z,1020.11
2017-09-29T06:15:59.916Z,1020.14
2017-09-29T06:16:40.485Z,1020.14
2017-09-29T06:17:21.055Z,1020.17
2017-09-29T06:18:01.640Z,1020.2
2017-09-29T06:18:42.257Z,1020.22
2017-09-29T06:19:22.817Z,1020.23
2017-09-29T06:20:03.388Z,1020.17
2017-09-29T06:20:43.996Z,1020.24
2017-09-29T06:21:24.586Z,1020.24
2017-09-29T06:22:05.180Z,1020.23
2017-09-29T06:22:45.772Z,1020.28
2017-09-29T06:23:26.429Z,1020.25
2017-09-29T06:24:07.013Z,1020.27
2017-09-29T06:24:47.600Z,1020.26
2017-09-29T06:25:28.218Z,1020.27
2017-09-29T06:26:08.865Z,1020.3
2017-09-29T06:26:49.448Z,1020.29
2017-09-29T06:27:30.069Z,1020.29
2017-09-29T06:28:10.644Z,1020.3
2017-09-29T06:28:51.254Z,1020.32
2017-09-29T06:29:31.842Z,1020.32
2017-09-29T06:30:12.429Z,1020.31
2017-09-29T06:30:53.030Z,1020.29
2017-09-29T06:31:33.620Z,1020.32
2017-09-29T06:32:14.278Z,1020.31
2017-09-29T06:32:54.945Z,1020.29
2017-09-29T06:33:35.544Z,1020.35
2017-09-29T06:34:16.233Z,1020.36
2017-09-29T06:34:56.899Z,1020.36
2017-09-29T06:35:37.487Z,1020.35
2017-09-29T06:36:18.059Z,1020.36
2017-09-29T06:36:58.626Z,1020.37
2017-09-29T06:37:39.229Z,1020.37
2017-09-29T06:38:19.860Z,1020.36
2017-09-29T06:39:00.467Z,1020.37
2017-09-29T06:39:41.056Z,1020.42
2017-09-29T06:40:21.646Z,1020.39
2017-09-29T06:41:02.222Z,1020.38
2017-09-29T06:41:42.794Z,1020.4
2017-09-29T06:42:23.417Z,1020.38
2017-09-29T06:43:03.997Z,1020.43
2017-09-29T06:43:44.580Z,1020.41
2017-09-29T06:44:25.199Z,1020.41
2017-09-29T06:45:05.760Z,1020.44
2017-09-29T06:45:46.356Z,1020.45
2017-09-29T06:46:26.968Z,1020.41
2017-09-29T06:47:07.710Z,1020.46
2017-09-29T06:47:48.291Z,1020.43
2017-09-29T06:48:28.867Z,1020.43
2017-09-29T06:49:09.432Z,1020.44
2017-09-29T06:49:50.016Z,1020.43
2017-09-29T06:50:30.570Z,1020.43
2017-09-29T06:51:11.159Z,1020.45
2017-09-29T06:51:51.737Z,1020.43
2017-09-29T06:52:32.316Z,1020.44
2017-09-29T06:53:12.905Z,1020.43
2017-09-29T06:53:53.501Z,1020.48
2017-09-29T06:54:34.072Z,1020.49
2017-09-29T06:55:14.667Z,1020.5
2017-09-29T06:55:55.265Z,1020.45
2017-09-29T06:56:35.861Z,1020.46
2017-09-29T06:57:16.445Z,1020.43
2017-09-29T06:57:57.087Z,1020.47
2017-09-29T06:58:37.694Z,1020.49
2017-09-29T06:59:18.303Z,1020.49
2017-09-29T06:59:58.889Z,1020.5
2017-09-29T07:00:39.544Z,1020.56
2017-09-29T07:01:20.160Z,1020.53
2017-09-29T07:02:00.759Z,1020.56
2017-09-29T07:02:41.360Z,1020.56
2017-09-29T07:03:21.957Z,1020.56
2017-09-29T07:04:02.514Z,1020.54
2017-09-29T07:04:43.166Z,1020.57
2017-09-29T07:05:23.800Z,1020.61
2017-09-29T07:06:04.435Z,1020.55
2017-09-29T07:06:45.019Z,1020.56
2017-09-29T07:07:26.660Z,1020.6
2017-09-29T07:08:07.055Z,1020.59
2017-09-29T07:08:47.638Z,1020.59
2017-09-29T07:09:28.268Z,1020.59
2017-09-29T07:10:08.843Z,1020.58
2017-09-29T07:10:49.470Z,1020.6
2017-09-29T07:11:30.176Z,1020.56
2017-09-29T07:12:10.770Z,1020.6
2017-09-29T07:12:51.407Z,1020.57
2017-09-29T07:13:32.013Z,1020.6
2017-09-29T07:14:12.615Z,1020.59
2017-09-29T07:14:53.235Z,1020.65
2017-09-29T07:15:33.837Z,1020.6
2017-09-29T07:16:14.464Z,1020.64
2017-09-29T07:16:55.600Z,1020.64
2017-09-29T07:17:36.157Z,1020.68
2017-09-29T07:18:16.728Z,1020.69
2017-09-29T07:18:57.353Z,1020.71
2017-09-29T07:19:38.005Z,1020.81
2017-09-29T07:20:18.589Z,1020.95
2017-09-29T07:20:59.157Z,1021.09
2017-09-29T07:21:39.787Z,1021.15
2017-09-29T07:22:20.506Z,1021.15
2017-09-29T07:23:01.112Z,1021.16
2017-09-29T07:23:41.671Z,1021.08
2017-09-29T07:24:22.332Z,1021.16
2017-09-29T07:25:02.938Z,1021.16
2017-09-29T07:25:43.506Z,1021.18
2017-09-29T07:26:24.129Z,1021.15
2017-09-29T07:27:04.742Z,1021.21
2017-09-29T07:27:45.329Z,1021.23
2017-09-29T07:28:25.944Z,1021.17
2017-09-29T07:29:06.619Z,1021.08
2017-09-29T07:29:47.249Z,1021.07
2017-09-29T07:30:27.840Z,1021.04
2017-09-29T07:31:08.497Z,1020.96
2017-09-29T07:31:49.051Z,1020.94
2017-09-29T07:32:29.679Z,1020.98
2017-09-29T07:33:10.380Z,1020.95
2017-09-29T07:33:51.033Z,1020.99
2017-09-29T07:34:31.625Z,1021
2017-09-29T07:35:12.360Z,1020.97
2017-09-29T07:35:52.939Z,1020.98
2017-09-29T07:36:33.552Z,1021
2017-09-29T07:37:14.132Z,1021.03
2017-09-29T07:37:54.723Z,1020.95
2017-09-29T07:38:35.332Z,1020.99
2017-09-29T07:39:15.934Z,1021.01
2017-09-29T07:39:56.542Z,1020.99
2017-09-29T07:40:37.133Z,1021.02
2017-09-29T07:41:17.732Z,1021.05
2017-09-29T07:41:58.337Z,1021.03
2017-09-29T07:42:38.941Z,1021.01
2017-09-29T07:43:19.540Z,1021.04
2017-09-29T07:44:00.129Z,1021
2017-09-29T07:44:40.796Z,1020.97
2017-09-29T07:45:21.388Z,1021.01
2017-09-29T07:46:02.004Z,1020.95
2017-09-29T07:46:42.613Z,1021.01
2017-09-29T07:47:23.289Z,1020.99
2017-09-29T07:48:03.894Z,1021.01
2017-09-29T07:48:44.530Z,1020.95
2017-09-29T07:49:25.146Z,1020.99
2017-09-29T07:50:05.756Z,1020.96
2017-09-29T07:50:46.358Z,1021.06
2017-09-29T07:51:26.972Z,1020.98
2017-09-29T07:52:07.595Z,1021
2017-09-29T07:52:48.159Z,1020.98
2017-09-29T07:53:28.776Z,1021
2017-09-29T07:54:09.406Z,1020.97
2017-09-29T07:54:50.056Z,1021
2017-09-29T07:55:30.680Z,1020.93
2017-09-29T07:56:11.340Z,1020.97
2017-09-29T07:56:51.934Z,1020.94
2017-09-29T07:57:32.545Z,1020.96
2017-09-29T07:58:13.123Z,1020.98
2017-09-29T07:58:53.761Z,1020.96
2017-09-29T07:59:34.379Z,1020.94
2017-09-29T08:00:14.977Z,1020.9
2017-09-29T08:00:55.610Z,1020.99
2017-09-29T08:01:36.197Z,1020.92
2017-09-29T08:02:16.797Z,1020.92
2017-09-29T08:02:57.413Z,1020.9
2017-09-29T08:03:38.053Z,1020.87
2017-09-29T08:04:18.679Z,1020.9
2017-09-29T08:04:59.313Z,1020.94
2017-09-29T08:05:39.984Z,1020.89
2017-09-29T08:06:20.606Z,1020.9
2017-09-29T08:07:01.265Z,1020.9
2017-09-29T08:07:41.883Z,1020.89
2017-09-29T08:08:22.491Z,1020.9
2017-09-29T08:09:03.102Z,1020.85
2017-09-29T08:09:43.745Z,1020.89
2017-09-29T08:10:24.340Z,1020.92
2017-09-29T08:11:04.996Z,1020.94
2017-09-29T08:11:45.604Z,1020.9
2017-09-29T08:12:26.215Z,1020.89
2017-09-29T08:13:06.828Z,1020.95